ETHN

Niederstetten Airport

Niederstetten, Germany
METAR ETHN 230620Z 22012KT 4500 -RADZ BR OVC006 11/10 Q1014 YLO
Observed Flight Rules
Sep-23 @ 06:20 UTC (20 minutes ago) Instrument Flight Rules
Wind Visibility Clouds Conditions
220° at 12 knots 4,506 meters
Temperatures Readings
Current 11°C / 52°F
Dewpoint 10°C / 50°F
Humidity 94%
Altimeter 29.94" Hg
Pressure 1014 hPa
Elevation 473
METAR ETHN 230620Z 22012KT 4500 -RADZ BR OVC006 11/10 Q1014 YLO
Observed Flight Rules
Sep-23 @ 06:20 UTC
(20 minutes ago)
IFR
Wind Visibility
220° at 12 knots 4,506 meters
Clouds
Conditions
Temperature Dewpoint
11°C / 52°F 10°C / 50°F
Humidity Altimeter Pressure
94% 29.94" Hg 1014 hPa